首页
METAR-TAF:

METAR-TAF

机场 :

Door County Cherryland Airport

Sturgeon Bay, 威斯康辛州, 美国

纬度: 44-51N, 经度: 087-25W, 海拔: 221米

当前天气观测

该预报发布于48分钟前的20:56 UTC
风速8节,风向西转西北
温度 -3°C
湿度 93%
气压 1005 hPa
能見度: 2.8公里
阴天层高于700英尺
小雪, 轻雾

METAR: KSUE 142056Z AUTO 29008KT 1 3/4SM -SN BR OVC007 M03/M04 A2967 RMK AO2 UPE36SNB36 SLP056 P0000 60000 T10281039 51008 FZRANO $

时间: 15:44 (21:44 UTC)


TAF: 丢失

超过4000个机场的气象观测和天气预报(METAR&TAF报告)。

可查询的气象台以黄色和红色小点在地图上表示。

将鼠标移到小点上方,可查看气象台名称。

然后点击查看天气观测和预报。

如需切换地图:点击带黑十字的绿色按钮放大地图;点击带横线的绿色按钮缩小地图;或者点击绿色箭头查看邻近地区的地图。


METAR-TAF: